Time;durP1;ratioP1;P1;durP2;ratioP2;P2;SDS_P1;SDS_P2;PMS_P1;PMS_P2;Temp;Humidity;BMP_temperature;BMP_pressure;BME280_temperature;BME280_humidity;BME280_pressure;Samples;Min_cycle;Max_cycle;Signal;HPM_P1;HPM_P2
2022/06/09 00:01:41;;;;;;;4.60;2.58;;;;;;;20.83;49.09;99263.00;1734731;80;21085;-67
2022/06/09 00:04:17;;;;;;;3.22;2.92;;;;;;;20.82;49.20;99266.67;1736182;81;21006;-68
2022/06/09 00:06:53;;;;;;;3.25;2.90;;;;;;;20.77;49.47;99257.73;1737304;80;20974;-68
2022/06/09 00:09:22;;;;;;;3.05;2.80;;;;;;;20.73;49.36;99265.68;1713337;80;21563;-67
2022/06/09 00:11:50;;;;;;;8.68;2.85;;;;;;;20.70;49.76;99259.77;1729252;80;21559;-69
2022/06/09 00:14:18;;;;;;;2.90;2.70;;;;;;;20.67;49.59;99257.40;1743138;80;21553;-67
2022/06/09 00:16:45;;;;;;;4.53;2.80;;;;;;;20.65;49.78;99256.20;1732151;81;21510;-68
2022/06/09 00:19:12;;;;;;;8.73;2.92;;;;;;;20.64;49.87;99254.50;1736809;81;21041;-67
2022/06/09 00:21:39;;;;;;;3.87;2.83;;;;;;;20.62;49.85;99253.80;1734286;80;21506;-67
2022/06/09 00:24:06;;;;;;;5.50;3.20;;;;;;;20.63;49.94;99253.33;1744094;80;20949;-67
2022/06/09 00:26:33;;;;;;;2.77;2.50;;;;;;;20.58;50.10;99247.85;1727263;80;21534;-67
2022/06/09 00:29:00;;;;;;;5.33;3.25;;;;;;;20.56;50.16;99255.16;1742322;79;21510;-68
2022/06/09 00:31:26;;;;;;;4.22;2.77;;;;;;;20.54;50.26;99251.79;1729782;80;20938;-67
2022/06/09 00:33:53;;;;;;;4.17;2.40;;;;;;;20.52;50.23;99249.75;1716860;80;21493;-69
2022/06/09 00:36:20;;;;;;;3.65;3.05;;;;;;;20.51;50.37;99248.55;1717221;81;21590;-66
2022/06/09 00:38:46;;;;;;;2.95;2.45;;;;;;;20.52;50.79;99248.41;1713827;81;21988;-66
2022/06/09 00:41:13;;;;;;;2.67;2.47;;;;;;;20.53;51.11;99250.12;1721454;80;21638;-66
2022/06/09 00:43:44;;;;;;;3.33;2.42;;;;;;;20.60;50.94;99255.27;1719072;80;21003;-66
2022/06/09 00:46:23;;;;;;;8.35;2.92;;;;;;;20.62;51.09;99255.13;1719221;80;21626;-66
2022/06/09 00:49:00;;;;;;;4.50;2.87;;;;;;;20.59;50.84;99255.39;1722852;80;21496;-66
2022/06/09 00:51:35;;;;;;;4.33;2.83;;;;;;;20.55;50.73;99249.95;1730649;81;21809;-67
2022/06/09 00:54:24;;;;;;;4.35;3.15;;;;;;;20.48;50.80;99257.69;1715753;80;21646;-67
2022/06/09 00:56:57;;;;;;;;;;;;;;;20.40;50.96;99250.88;1712676;81;21498;-67
2022/06/09 00:59:26;;;;;;;3.92;3.15;;;;;;;20.31;51.68;99251.20;1724498;80;20353;-66
2022/06/09 01:01:57;;;;;;;;;;;;;;;20.28;51.41;99264.81;1724411;80;21427;-66
2022/06/09 01:04:24;;;;;;;4.42;3.35;;;;;;;20.19;51.65;99259.82;1718440;80;21677;-68
2022/06/09 01:07:05;;;;;;;4.72;2.80;;;;;;;20.16;51.29;99257.91;1714747;80;21496;-69
2022/06/09 01:09:32;;;;;;;3.62;3.08;;;;;;;20.08;51.39;99253.72;1717372;80;21572;-69
2022/06/09 01:11:59;;;;;;;3.75;3.35;;;;;;;20.03;51.41;99252.81;1723473;81;20991;-69
2022/06/09 01:14:32;;;;;;;4.07;3.33;;;;;;;20.02;51.49;99254.64;1718326;81;20987;-69
2022/06/09 01:17:22;;;;;;;3.72;3.37;;;;;;;19.98;51.59;99251.87;1717566;80;21822;-70
2022/06/09 01:20:28;;;;;;;6.33;3.35;;;;;;;19.96;51.68;99263.66;1718031;81;21619;-69
2022/06/09 01:23:19;;;;;;;4.75;2.98;;;;;;;19.95;52.04;99267.33;1730495;80;21519;-67
2022/06/09 01:26:23;;;;;;;3.52;2.95;;;;;;;19.98;52.38;99266.54;1709432;81;21519;-67
2022/06/09 01:29:14;;;;;;;5.37;3.65;;;;;;;20.00;52.46;99267.28;1717432;80;21527;-67
2022/06/09 01:32:05;;;;;;;4.70;4.22;;;;;;;20.00;52.62;99263.27;1717457;81;21948;-67
2022/06/09 01:35:10;;;;;;;5.90;4.45;;;;;;;19.98;53.03;99259.87;1706743;82;21468;-67
2022/06/09 01:37:47;;;;;;;6.47;4.62;;;;;;;20.01;53.32;99261.45;1723567;80;21539;-67
2022/06/09 01:40:16;;;;;;;4.60;4.20;;;;;;;19.96;53.73;99253.83;1728026;80;21563;-67
2022/06/09 01:42:46;;;;;;;5.72;4.17;;;;;;;19.97;54.89;99254.70;1721459;80;21469;-67
2022/06/09 01:45:39;;;;;;;4.75;4.25;;;;;;;20.02;54.91;99255.98;1733014;80;22519;-68
2022/06/09 01:48:12;;;;;;;6.03;4.30;;;;;;;20.06;55.43;99253.02;1719609;80;21034;-68
2022/06/09 01:51:00;;;;;;;5.17;4.67;;;;;;;20.07;56.33;99253.39;1723666;80;21665;-66
2022/06/09 01:53:35;;;;;;;;;;;;;;;20.07;56.76;99261.39;1723264;80;21485;-67
2022/06/09 01:56:27;;;;;;;6.87;5.20;;;;;;;20.06;57.54;99263.23;1731650;80;20438;-67
2022/06/09 01:59:07;;;;;;;5.50;4.70;;;;;;;20.06;57.41;99264.56;1728623;80;21960;-67
2022/06/09 02:01:38;;;;;;;6.35;5.40;;;;;;;20.09;57.89;99262.09;1716808;80;21472;-67
2022/06/09 02:04:08;;;;;;;7.55;5.10;;;;;;;20.17;58.65;99265.78;1716718;80;20974;-67
2022/06/09 02:06:34;;;;;;;7.47;5.08;;;;;;;20.26;58.59;99272.11;1729363;81;21435;-67
2022/06/09 02:09:01;;;;;;;7.97;5.05;;;;;;;20.30;59.04;99268.18;1723545;80;21574;-66
2022/06/09 02:11:28;;;;;;;5.53;5.05;;;;;;;20.33;59.44;99267.92;1695521;82;21976;-68
2022/06/09 02:13:56;;;;;;;6.03;5.20;;;;;;;20.39;59.34;99278.05;1724473;81;21524;-65
2022/06/09 02:16:22;;;;;;;7.28;5.40;;;;;;;20.43;59.42;99281.28;1733364;80;21574;-66
2022/06/09 02:18:53;;;;;;;8.58;5.72;;;;;;;20.41;59.80;99280.08;1714017;80;21439;-66
2022/06/09 02:21:33;;;;;;;7.03;6.42;;;;;;;20.41;59.87;99276.58;1721889;81;21629;-67
2022/06/09 02:24:00;;;;;;;6.62;6.03;;;;;;;20.41;59.61;99277.41;1729507;80;21776;-66
2022/06/09 02:26:27;;;;;;;7.58;5.70;;;;;;;20.42;59.29;99276.94;1717851;81;21575;-66
2022/06/09 02:28:54;;;;;;;6.45;5.53;;;;;;;20.41;59.18;99284.59;1718764;80;21467;-67
2022/06/09 02:31:21;;;;;;;5.87;5.15;;;;;;;20.45;59.16;99286.49;1723515;80;21558;-67
2022/06/09 02:33:48;;;;;;;5.20;4.80;;;;;;;20.48;59.13;99283.56;1727623;80;21514;-67
2022/06/09 02:36:15;;;;;;;5.40;4.83;;;;;;;20.52;59.25;99284.97;1726748;80;21896;-67
2022/06/09 02:38:42;;;;;;;5.37;4.95;;;;;;;20.55;59.03;99284.20;1724107;80;21006;-67
2022/06/09 02:41:09;;;;;;;8.20;5.03;;;;;;;20.55;58.84;99288.20;1722623;81;21527;-67
2022/06/09 02:43:36;;;;;;;5.28;4.87;;;;;;;20.54;58.65;99293.18;1727134;80;21480;-67
2022/06/09 02:46:03;;;;;;;6.53;4.62;;;;;;;20.54;58.65;99299.86;1730340;80;21500;-67
2022/06/09 02:48:31;;;;;;;5.70;4.40;;;;;;;20.57;58.50;99294.75;1726338;80;21903;-68
2022/06/09 02:50:57;;;;;;;4.58;4.17;;;;;;;20.65;58.33;99295.42;1726191;80;21440;-68
2022/06/09 02:53:24;;;;;;;6.65;4.80;;;;;;;20.72;58.23;99288.52;1714698;81;21015;-67
2022/06/09 02:55:51;;;;;;;6.03;5.17;;;;;;;20.77;57.94;99287.12;1718481;79;21435;-67
2022/06/09 02:58:18;;;;;;;5.12;4.65;;;;;;;20.77;57.86;99287.12;1726588;80;21614;-67
2022/06/09 03:00:45;;;;;;;4.72;4.35;;;;;;;20.76;57.79;99288.62;1727071;80;21903;-66
2022/06/09 03:03:14;;;;;;;4.42;4.03;;;;;;;20.75;57.49;99292.26;1725178;80;21479;-70
2022/06/09 03:05:41;;;;;;;5.25;4.60;;;;;;;20.74;57.15;99295.43;1716750;81;21548;-67
2022/06/09 03:08:08;;;;;;;4.80;4.10;;;;;;;20.74;57.20;99296.77;1724857;80;21534;-68
2022/06/09 03:10:36;;;;;;;7.60;4.28;;;;;;;20.75;57.37;99297.60;1732839;79;21855;-68
2022/06/09 03:13:03;;;;;;;5.12;4.37;;;;;;;20.80;57.42;99291.36;1723958;80;21489;-68
2022/06/09 03:15:31;;;;;;;6.53;4.28;;;;;;;20.87;57.24;99292.49;1730121;80;21602;-67
2022/06/09 03:17:58;;;;;;;7.55;5.05;;;;;;;20.93;57.36;99301.27;1721056;80;21514;-67
2022/06/09 03:20:28;;;;;;;4.55;4.08;;;;;;;20.93;57.58;99295.09;1720000;80;21605;-68
2022/06/09 03:22:56;;;;;;;4.50;4.12;;;;;;;20.97;58.42;99291.16;1726702;81;20939;-67
2022/06/09 03:25:23;;;;;;;5.03;4.62;;;;;;;21.03;58.46;99294.59;1721797;81;21818;-67
2022/06/09 03:27:51;;;;;;;5.08;4.03;;;;;;;21.07;58.40;99293.81;1716438;80;21527;-68
2022/06/09 03:30:19;;;;;;;3.98;3.55;;;;;;;21.15;58.57;99297.95;1733502;81;21930;-68
2022/06/09 03:32:46;;;;;;;4.28;3.77;;;;;;;21.28;58.23;99294.98;1725808;80;21464;-67
2022/06/09 03:35:14;;;;;;;8.55;4.65;;;;;;;21.40;58.54;99296.53;1729336;80;21511;-68
2022/06/09 03:37:41;;;;;;;4.20;3.80;;;;;;;21.73;57.69;99296.53;1729847;81;21492;-68
2022/06/09 03:40:12;;;;;;;4.23;3.87;;;;;;;21.73;57.69;99296.53;1734183;80;21482;-68
2022/06/09 03:42:38;;;;;;;3.95;3.55;;;;;;;21.81;57.67;99297.14;1727824;80;21685;-68
2022/06/09 03:45:07;;;;;;;5.00;3.60;;;;;;;21.90;56.94;99290.08;1718533;80;21459;-68
2022/06/09 03:47:34;;;;;;;3.47;3.17;;;;;;;21.96;56.83;99291.69;1729769;80;21633;-68
2022/06/09 03:50:01;;;;;;;5.53;4.00;;;;;;;22.02;56.21;99290.25;1719453;81;21741;-69
2022/06/09 03:52:27;;;;;;;4.95;3.22;;;;;;;22.09;55.14;99292.66;1737625;80;21468;-68
2022/06/09 03:54:55;;;;;;;3.87;3.47;;;;;;;22.16;53.50;99288.91;1724141;80;21609;-68
2022/06/09 03:57:21;;;;;;;5.10;3.02;;;;;;;22.40;51.68;99280.86;1724101;80;21049;-68
2022/06/09 03:59:48;;;;;;;3.67;2.60;;;;;;;22.40;51.68;99280.86;1725444;80;21473;-66
2022/06/09 04:02:15;;;;;;;3.40;2.55;;;;;;;22.53;51.13;99283.52;1728365;80;21897;-66
2022/06/09 04:04:41;;;;;;;2.80;2.42;;;;;;;22.69;50.41;99281.48;1730646;80;21014;-65
2022/06/09 04:07:11;;;;;;;4.72;2.20;;;;;;;22.85;50.36;99278.14;1729182;80;20932;-66
2022/06/09 04:09:39;;;;;;;3.92;2.50;;;;;;;23.00;49.88;99278.44;1725091;80;21472;-66
2022/06/09 04:12:06;;;;;;;7.30;2.02;;;;;;;23.19;49.34;99271.23;1732551;80;25507;-66
2022/06/09 04:14:33;;;;;;;;;;;;;;;23.33;48.83;99273.36;1732076;80;21547;-66
2022/06/09 04:17:00;;;;;;;2.60;1.90;;;;;;;23.45;48.97;99273.93;1731754;80;21097;-68
2022/06/09 04:19:27;;;;;;;4.08;2.33;;;;;;;23.58;48.71;99266.30;1723194;80;21097;-65
2022/06/09 04:21:54;;;;;;;3.23;2.37;;;;;;;23.71;48.47;99265.40;1728474;81;21468;-66
2022/06/09 04:24:21;;;;;;;3.50;2.42;;;;;;;23.84;48.75;99270.34;1729752;81;22212;-66
2022/06/09 04:26:47;;;;;;;4.87;2.00;;;;;;;23.98;49.15;99262.20;1719060;80;21396;-65
2022/06/09 04:29:14;;;;;;;5.20;2.58;;;;;;;24.16;49.15;99258.57;1718703;81;21547;-66
2022/06/09 04:31:41;;;;;;;4.45;2.50;;;;;;;24.16;49.15;99258.57;1730924;81;21578;-66
2022/06/09 04:34:09;;;;;;;2.85;2.65;;;;;;;24.25;48.95;99261.12;1732922;80;21518;-66
2022/06/09 04:36:36;;;;;;;5.27;2.57;;;;;;;24.27;48.91;99256.42;1735884;81;21431;-67
2022/06/09 04:39:05;;;;;;;4.13;2.57;;;;;;;24.33;49.34;99257.61;1730086;80;21815;-65
2022/06/09 04:41:32;;;;;;;7.53;2.72;;;;;;;24.40;48.62;99264.53;1735617;80;21415;-67
2022/06/09 04:43:58;;;;;;;3.20;2.90;;;;;;;24.51;48.75;99262.88;1734952;80;21551;-66
2022/06/09 04:47:35;;;;;;;3.72;3.35;;;;;;;24.17;50.35;99261.10;1785139;79;23118;-65
2022/06/09 04:50:02;;;;;;;3.50;3.20;;;;;;;24.83;49.91;99258.08;1729056;80;21526;-66
2022/06/09 04:52:29;;;;;;;5.67;2.60;;;;;;;24.94;49.75;99261.44;1739547;80;21940;-65
2022/06/09 04:54:56;;;;;;;2.52;2.12;;;;;;;25.04;48.92;99262.13;1729755;80;21427;-65
2022/06/09 04:57:23;;;;;;;3.30;2.10;;;;;;;25.14;46.44;99260.09;1744066;80;21510;-66
2022/06/09 04:59:49;;;;;;;4.78;2.20;;;;;;;25.28;45.05;99261.80;1743873;80;20959;-66
2022/06/09 05:02:16;;;;;;;1.82;1.70;;;;;;;25.32;43.87;99266.69;1726868;80;21574;-65
2022/06/09 05:04:43;;;;;;;5.80;1.72;;;;;;;25.33;42.71;99260.79;1724921;80;21909;-65
2022/06/09 05:07:09;;;;;;;2.17;1.77;;;;;;;25.43;41.76;99264.98;1740044;80;21436;-67
2022/06/09 05:09:36;;;;;;;3.53;1.70;;;;;;;25.52;42.38;99262.27;1728757;80;21454;-66
2022/06/09 05:12:04;;;;;;;3.08;1.70;;;;;;;25.63;42.22;99257.36;1735292;80;21627;-66
2022/06/09 05:14:32;;;;;;;1.80;1.67;;;;;;;25.74;41.38;99262.05;1730826;80;21526;-66
2022/06/09 05:16:59;;;;;;;4.90;2.05;;;;;;;25.75;40.73;99259.20;1742463;80;21797;-68
2022/06/09 05:19:26;;;;;;;3.47;2.05;;;;;;;25.83;40.55;99263.72;1724487;80;21424;-67
2022/06/09 05:21:53;;;;;;;2.87;1.70;;;;;;;25.89;40.84;99265.70;1739890;80;21562;-67
2022/06/09 05:24:20;;;;;;;2.17;1.72;;;;;;;25.96;40.65;99259.16;1734973;80;21025;-67
2022/06/09 05:26:47;;;;;;;3.05;1.95;;;;;;;26.03;40.69;99260.98;1734259;80;21430;-66
2022/06/09 05:29:13;;;;;;;6.00;2.60;;;;;;;26.12;41.14;99260.42;1732003;80;21910;-67
2022/06/09 05:31:40;;;;;;;2.70;1.87;;;;;;;26.24;40.96;99263.59;1742561;80;21388;-66
2022/06/09 05:34:08;;;;;;;6.03;2.10;;;;;;;26.35;41.22;99258.28;1737600;80;21448;-66
2022/06/09 05:36:37;;;;;;;3.65;1.92;;;;;;;26.45;41.64;99266.14;1737482;80;21535;-68
2022/06/09 05:44:51;;;;;;;2.92;2.25;;;;;;;26.75;41.36;99273.41;1733053;80;21527;-58
2022/06/09 05:47:21;;;;;;;2.35;1.65;;;;;;;26.80;40.65;99264.28;1715429;80;21010;-60
2022/06/09 05:49:49;;;;;;;2.20;1.80;;;;;;;26.89;40.23;99265.56;1724886;80;20943;-58
2022/06/09 05:52:17;;;;;;;1.70;1.60;;;;;;;26.96;40.15;99266.00;1724418;80;21514;-58
2022/06/09 05:54:44;;;;;;;2.05;1.55;;;;;;;26.97;40.08;99266.35;1717265;80;21428;-59
2022/06/09 05:57:12;;;;;;;11.80;2.10;;;;;;;27.05;39.84;99261.88;1718464;80;21590;-58
2022/06/09 05:59:40;;;;;;;5.40;1.80;;;;;;;27.12;39.41;99266.89;1724142;80;20939;-58
2022/06/09 06:02:08;;;;;;;3.10;1.60;;;;;;;27.21;39.48;99269.84;1720414;80;21792;-58
2022/06/09 06:04:36;;;;;;;2.22;1.65;;;;;;;27.29;39.55;99269.80;1737820;79;21073;-58
2022/06/09 06:07:04;;;;;;;2.90;1.70;;;;;;;27.33;39.13;99266.22;1721321;80;21957;-58
2022/06/09 06:09:33;;;;;;;5.03;1.80;;;;;;;27.41;39.23;99268.86;1720804;81;21526;-57
2022/06/09 06:12:01;;;;;;;2.77;1.82;;;;;;;27.46;39.14;99266.42;1717988;81;21456;-58
2022/06/09 06:14:28;;;;;;;2.87;1.70;;;;;;;27.57;38.47;99268.67;1721277;81;21443;-59
2022/06/09 06:16:55;;;;;;;2.07;1.87;;;;;;;27.70;38.50;99275.31;1730045;81;20931;-58
2022/06/09 06:19:23;;;;;;;4.83;1.90;;;;;;;27.76;38.64;99275.91;1715855;80;21923;-59
2022/06/09 06:21:52;;;;;;;6.25;1.80;;;;;;;27.80;38.61;99271.80;1720518;80;21554;-60
2022/06/09 06:24:20;;;;;;;2.45;1.50;;;;;;;27.91;38.47;99270.54;1722934;81;20970;-60
2022/06/09 06:26:48;;;;;;;3.40;1.62;;;;;;;28.06;37.73;99274.59;1725669;80;21499;-59
2022/06/09 06:29:22;;;;;;;4.10;1.50;;;;;;;28.12;37.44;99271.13;1731359;80;21480;-61
2022/06/09 06:31:49;;;;;;;3.58;1.45;;;;;;;28.19;37.70;99267.17;1713696;82;21788;-63
2022/06/09 06:34:16;;;;;;;1.90;1.60;;;;;;;28.24;37.68;99267.45;1716332;80;21495;-59
2022/06/09 06:36:44;;;;;;;1.67;1.57;;;;;;;28.30;37.09;99266.16;1724515;80;21558;-59
2022/06/09 06:39:11;;;;;;;;;;;;;;;28.35;36.84;99265.09;1725996;80;21597;-59
2022/06/09 06:41:38;;;;;;;3.53;1.53;;;;;;;28.46;36.85;99261.55;1717454;80;20558;-59
2022/06/09 06:44:05;;;;;;;2.58;1.52;;;;;;;28.54;36.13;99262.84;1715216;80;21798;-59
2022/06/09 06:46:32;;;;;;;3.92;1.52;;;;;;;28.66;36.70;99265.34;1721533;80;21486;-60
2022/06/09 06:48:59;;;;;;;3.25;1.47;;;;;;;28.76;36.83;99259.61;1734015;80;21578;-60
2022/06/09 06:51:26;;;;;;;2.02;1.22;;;;;;;28.85;35.79;99257.11;1735202;81;21555;-59
2022/06/09 06:53:52;;;;;;;2.90;1.55;;;;;;;28.88;35.73;99258.61;1737623;80;21792;-59
2022/06/09 06:56:19;;;;;;;1.62;1.52;;;;;;;28.95;35.57;99259.48;1729405;80;22269;-59
2022/06/09 06:58:45;;;;;;;2.35;1.52;;;;;;;29.02;35.15;99257.67;1739040;80;21491;-58
2022/06/09 07:01:13;;;;;;;1.77;1.50;;;;;;;29.05;35.59;99260.00;1734716;81;21586;-59
2022/06/09 07:03:40;;;;;;;1.77;1.43;;;;;;;29.10;35.43;99258.91;1728480;81;21085;-59
2022/06/09 07:06:08;;;;;;;2.00;1.27;;;;;;;29.14;35.16;99258.05;1737648;80;21450;-60
2022/06/09 07:08:35;;;;;;;5.08;1.30;;;;;;;29.26;34.99;99256.98;1738167;80;21959;-60
2022/06/09 07:11:04;;;;;;;1.32;1.22;;;;;;;29.39;35.46;99261.14;1740461;80;21454;-61
2022/06/09 07:13:30;;;;;;;1.80;1.27;;;;;;;29.47;34.81;99256.92;1729032;80;21542;-59
2022/06/09 07:15:57;;;;;;;2.83;1.47;;;;;;;29.50;34.15;99257.89;1733378;80;21428;-61
2022/06/09 07:18:24;;;;;;;2.45;1.30;;;;;;;29.53;33.73;99263.42;1741628;79;21526;-61
2022/06/09 07:20:50;;;;;;;3.12;1.10;;;;;;;29.61;34.04;99255.66;1743920;80;21882;-62
2022/06/09 07:23:18;;;;;;;1.47;1.37;;;;;;;29.73;33.35;99262.23;1741129;80;21407;-61
2022/06/09 07:25:44;;;;;;;1.65;0.95;;;;;;;29.78;33.13;99264.33;1739337;81;21521;-61
2022/06/09 07:28:13;;;;;;;2.85;1.22;;;;;;;29.80;32.92;99265.83;1738091;80;21018;-61
2022/06/09 07:30:41;;;;;;;2.98;1.25;;;;;;;29.88;32.01;99258.05;1740392;80;21561;-61
2022/06/09 07:33:09;;;;;;;4.17;1.30;;;;;;;29.98;32.12;99257.67;1734336;80;21669;-64
2022/06/09 07:35:37;;;;;;;1.25;1.17;;;;;;;30.04;31.82;99260.93;1730758;80;21549;-61
2022/06/09 07:38:05;;;;;;;7.12;1.37;;;;;;;30.08;32.01;99263.05;1731934;81;21510;-63
2022/06/09 07:40:34;;;;;;;1.37;1.30;;;;;;;30.21;32.26;99264.95;1737700;79;21574;-62
2022/06/09 07:43:03;;;;;;;2.72;1.30;;;;;;;30.31;31.58;99266.45;1735336;80;21533;-62
2022/06/09 07:45:31;;;;;;;1.45;1.35;;;;;;;30.36;31.50;99268.08;1733488;80;21411;-63
2022/06/09 07:47:58;;;;;;;2.17;1.32;;;;;;;30.39;31.77;99266.33;1732702;80;21569;-64
2022/06/09 07:50:25;;;;;;;3.05;1.32;;;;;;;30.44;31.34;99266.03;1735749;81;21500;-63
2022/06/09 07:52:52;;;;;;;4.53;1.30;;;;;;;30.53;31.01;99269.37;1730746;80;21521;-64
2022/06/09 07:55:22;;;;;;;1.60;1.50;;;;;;;30.52;30.59;99263.66;1737657;80;21411;-64
2022/06/09 07:57:47;;;;;;;3.67;1.47;;;;;;;30.47;31.08;99254.76;1743716;79;21980;-62
2022/06/09 08:00:14;;;;;;;1.30;1.20;;;;;;;30.41;30.71;99257.47;1730939;80;21633;-62
2022/06/09 08:02:43;;;;;;;2.67;1.70;;;;;;;30.37;30.68;99257.03;1735143;80;21511;-63
2022/06/09 08:05:10;;;;;;;4.08;1.55;;;;;;;30.36;30.91;99265.37;1694906;82;21558;-63
2022/06/09 08:07:37;;;;;;;3.35;1.45;;;;;;;30.34;31.28;99265.56;1681300;83;21496;-64
2022/06/09 08:10:05;;;;;;;1.45;1.35;;;;;;;30.30;31.49;99263.45;1681661;83;21950;-63
2022/06/09 08:12:34;;;;;;;2.77;1.47;;;;;;;30.29;31.97;99269.39;1681533;83;21589;-64
2022/06/09 08:15:01;;;;;;;1.83;1.60;;;;;;;30.36;32.32;99267.55;1688483;83;21552;-63
2022/06/09 08:17:28;;;;;;;2.60;1.65;;;;;;;30.48;32.42;99269.17;1691868;82;21527;-63
2022/06/09 08:19:55;;;;;;;2.37;1.47;;;;;;;30.57;31.47;99261.67;1692446;83;21456;-64
2022/06/09 08:22:22;;;;;;;4.08;1.30;;;;;;;30.62;31.52;99261.90;1683850;82;21979;-64
2022/06/09 08:24:49;;;;;;;4.33;1.87;;;;;;;30.71;31.89;99258.48;1679938;82;21525;-64
2022/06/09 08:27:15;;;;;;;4.55;1.60;;;;;;;30.77;31.98;99267.15;1680053;84;21598;-63
2022/06/09 08:29:43;;;;;;;2.90;1.70;;;;;;;30.83;32.11;99265.78;1678341;82;21529;-64
2022/06/09 08:32:10;;;;;;;2.20;1.47;;;;;;;30.88;31.66;99265.72;1681399;84;21448;-63
2022/06/09 08:34:36;;;;;;;1.67;1.30;;;;;;;30.91;31.66;99268.89;1679547;83;21849;-63
2022/06/09 08:37:04;;;;;;;2.80;1.60;;;;;;;30.95;31.53;99267.42;1673810;84;22256;-63
2022/06/09 08:39:31;;;;;;;2.83;1.75;;;;;;;30.99;31.93;99263.25;1674777;84;21558;-63
2022/06/09 08:42:24;;;;;;;3.83;1.60;;;;;;;31.01;31.84;99262.52;1679128;84;21634;-64
2022/06/09 08:45:00;;;;;;;1.82;1.70;;;;;;;31.02;31.44;99264.20;1671512;84;21549;-62
2022/06/09 08:47:52;;;;;;;3.50;1.82;;;;;;;31.11;30.23;99256.66;1681373;83;21935;-63
2022/06/09 08:50:30;;;;;;;3.98;2.33;;;;;;;31.14;29.90;99260.33;1728190;81;21137;-62
2022/06/09 08:53:15;;;;;;;1.60;1.50;;;;;;;31.12;29.57;99258.34;1738376;80;21462;-65
2022/06/09 08:55:48;;;;;;;1.92;1.20;;;;;;;31.13;29.96;99256.46;1724136;80;21511;-62
2022/06/09 08:58:38;;;;;;;2.12;1.60;;;;;;;31.14;29.52;99248.64;1727771;80;21483;-66
2022/06/09 09:01:31;;;;;;;1.92;1.45;;;;;;;31.15;29.52;99249.77;1726377;81;22022;-63
2022/06/09 09:04:26;;;;;;;3.40;1.40;;;;;;;31.24;31.11;99251.23;1736927;80;20982;-63
2022/06/09 09:07:07;;;;;;;1.57;1.47;;;;;;;31.37;29.74;99249.56;1736601;80;21610;-64
2022/06/09 09:09:35;;;;;;;1.87;1.70;;;;;;;31.44;28.48;99247.15;1711623;81;21511;-63
2022/06/09 09:12:16;;;;;;;2.42;1.40;;;;;;;31.11;28.27;99215.12;1731268;81;20991;-62
2022/06/09 09:15:26;;;;;;;2.92;1.47;;;;;;;31.19;29.50;99256.48;1700115;81;21931;-63
2022/06/09 09:18:02;;;;;;;1.47;1.37;;;;;;;31.23;29.38;99247.36;1735663;80;21081;-64
2022/06/09 09:20:45;;;;;;;2.20;1.25;;;;;;;31.32;28.93;99246.11;1717283;81;21447;-63
2022/06/09 09:23:19;;;;;;;1.40;1.30;;;;;;;31.51;28.41;99249.88;1735552;80;21589;-62
2022/06/09 09:26:19;;;;;;;1.45;1.15;;;;;;;31.80;28.31;99239.59;1720966;81;21440;-63
2022/06/09 09:29:00;;;;;;;3.90;1.20;;;;;;;32.00;27.18;99234.92;1751634;80;21710;-64
2022/06/09 09:31:41;;;;;;;2.02;1.17;;;;;;;32.15;26.69;99244.70;1752978;80;21581;-64
2022/06/09 09:34:22;;;;;;;2.27;1.10;;;;;;;32.25;25.96;99227.92;1749644;80;21679;-62
2022/06/09 09:36:54;;;;;;;4.80;1.30;;;;;;;32.38;25.96;99231.42;1747238;80;21010;-60
2022/06/09 09:39:37;;;;;;;1.40;1.30;;;;;;;32.51;25.92;99230.52;1753373;80;21479;-58
2022/06/09 09:42:15;;;;;;;1.65;1.25;;;;;;;32.64;25.57;99225.52;1750957;80;21727;-60
2022/06/09 09:44:43;;;;;;;2.05;1.60;;;;;;;32.78;25.62;99220.30;1737632;80;20950;-58
2022/06/09 09:47:10;;;;;;;4.50;1.37;;;;;;;32.93;25.71;99215.91;1756894;80;21509;-62
2022/06/09 09:49:44;;;;;;;1.32;1.22;;;;;;;33.01;25.19;99222.96;1727979;80;21428;-62
2022/06/09 09:52:43;;;;;;;1.30;1.20;;;;;;;33.02;25.49;99215.61;1748126;79;21427;-61
2022/06/09 09:55:35;;;;;;;3.30;1.25;;;;;;;33.01;25.76;99211.24;1734108;80;22074;-61
2022/06/09 09:58:42;;;;;;;1.92;1.40;;;;;;;32.85;25.26;99209.38;1759004;79;21013;-61
2022/06/09 10:01:20;;;;;;;3.30;1.40;;;;;;;32.57;25.52;99213.88;1756809;80;21412;-61
2022/06/09 10:10:19;;;;;;;3.95;1.70;;;;;;;32.47;26.34;99209.39;1754080;80;21771;-61
2022/06/09 10:12:45;;;;;;;4.45;1.50;;;;;;;32.47;26.66;99214.30;1755854;80;21527;-60
2022/06/09 10:15:18;;;;;;;1.47;1.35;;;;;;;32.39;26.24;99209.95;1754751;80;21499;-60
2022/06/09 10:18:02;;;;;;;1.85;1.60;;;;;;;32.34;25.91;99209.80;1762994;80;21593;-60
2022/06/09 10:20:43;;;;;;;5.00;1.47;;;;;;;32.44;27.13;99213.39;1756738;80;21518;-60
2022/06/09 10:23:16;;;;;;;2.72;1.70;;;;;;;32.61;26.38;99211.52;1730851;80;21979;-62
2022/06/09 10:26:04;;;;;;;2.15;1.45;;;;;;;32.71;26.44;99200.47;1756393;80;21636;-62
2022/06/09 10:29:02;;;;;;;2.85;1.30;;;;;;;32.90;26.34;99201.90;1744862;80;21506;-64
2022/06/09 10:31:50;;;;;;;1.52;1.32;;;;;;;33.07;26.43;99202.17;1736224;80;21546;-62
2022/06/09 10:34:41;;;;;;;1.85;1.52;;;;;;;33.28;25.76;99205.88;1753615;80;21570;-62
2022/06/09 10:37:41;;;;;;;1.30;1.20;;;;;;;33.43;24.88;99204.16;1758677;80;21771;-62
2022/06/09 10:40:35;;;;;;;3.92;1.50;;;;;;;33.51;25.17;99193.48;1755822;80;21478;-64
2022/06/09 10:43:21;;;;;;;3.47;1.40;;;;;;;33.63;24.62;99194.41;1754040;80;21029;-64
2022/06/09 10:46:14;;;;;;;1.98;1.40;;;;;;;33.59;24.27;99192.34;1756006;80;21589;-63
2022/06/09 10:55:14;;;;;;;2.98;1.40;;;;;;;33.80;25.30;99187.03;1746059;80;21502;-63
2022/06/09 10:57:47;;;;;;;1.55;1.30;;;;;;;33.90;24.63;99188.67;1763309;80;21435;-63
2022/06/09 11:00:21;;;;;;;4.40;1.27;;;;;;;33.97;24.53;99182.61;1750087;80;21551;-62
2022/06/09 11:02:54;;;;;;;2.12;1.30;;;;;;;33.95;24.53;99182.01;1760765;80;21463;-62
2022/06/09 11:05:38;;;;;;;2.87;1.50;;;;;;;34.00;24.85;99182.67;1755064;80;21816;-63
2022/06/09 11:08:17;;;;;;;2.95;1.42;;;;;;;34.05;24.93;99189.63;1755584;80;21527;-63
2022/06/09 11:11:32;;;;;;;3.95;1.40;;;;;;;33.94;25.04;99193.96;1742713;80;21553;-64
2022/06/09 11:14:37;;;;;;;3.12;1.30;;;;;;;33.78;25.16;99186.42;1682297;84;21516;-64
2022/06/09 11:17:43;;;;;;;2.95;1.52;;;;;;;33.53;25.57;99192.73;1727221;82;21542;-63
2022/06/09 11:20:25;;;;;;;2.42;1.30;;;;;;;33.32;26.17;99198.09;1728822;81;21415;-63
2022/06/09 11:23:17;;;;;;;1.98;1.27;;;;;;;33.14;26.21;99190.73;1725532;82;21420;-65
2022/06/09 11:25:58;;;;;;;2.90;1.55;;;;;;;33.11;26.62;99189.80;1729565;82;21605;-64
2022/06/09 11:28:55;;;;;;;1.37;1.25;;;;;;;33.10;27.27;99193.03;1720829;82;21479;-65
2022/06/09 11:31:37;;;;;;;;;;;;;;;33.26;27.17;99187.56;1731195;82;21580;-66
2022/06/09 11:34:36;;;;;;;1.57;1.30;;;;;;;33.47;26.60;99188.19;1730685;82;22067;-62
2022/06/09 11:37:23;;;;;;;4.05;1.40;;;;;;;33.60;25.92;99192.66;1723212;80;21421;-63
2022/06/09 11:40:04;;;;;;;2.02;1.40;;;;;;;33.74;25.91;99187.41;1728844;82;20994;-62
2022/06/09 11:42:52;;;;;;;2.75;1.45;;;;;;;33.88;25.67;99181.25;1723850;82;21458;-62
2022/06/09 11:45:39;;;;;;;;;;;;;;;34.02;24.83;99174.58;1727998;82;21502;-64
2022/06/09 11:48:09;;;;;;;1.62;1.32;;;;;;;34.06;25.11;99173.05;1730063;82;20435;-62
2022/06/09 11:50:39;;;;;;;1.67;1.50;;;;;;;34.13;25.31;99168.85;1721292;82;21648;-62
2022/06/09 11:53:08;;;;;;;1.75;1.30;;;;;;;34.28;25.05;99163.86;1705036;82;21550;-63
2022/06/09 11:55:59;;;;;;;3.47;1.90;;;;;;;34.43;24.84;99166.67;1729380;82;21502;-63
2022/06/09 11:58:40;;;;;;;1.67;1.57;;;;;;;34.52;24.50;99163.37;1724568;82;21558;-64
2022/06/09 12:01:34;;;;;;;2.45;1.70;;;;;;;34.47;24.99;99163.27;1729945;82;21932;-62
2022/06/09 12:04:24;;;;;;;3.08;1.40;;;;;;;34.53;25.03;99149.22;1726591;81;21550;-62
2022/06/09 12:07:29;;;;;;;4.12;1.42;;;;;;;34.76;24.58;99166.73;1730640;81;21467;-63
2022/06/09 12:10:16;;;;;;;2.35;1.47;;;;;;;34.93;24.21;99173.16;1728225;81;21498;-62
2022/06/09 12:12:44;;;;;;;3.45;1.22;;;;;;;35.08;24.42;99168.59;1725455;82;21495;-61
2022/06/09 12:15:28;;;;;;;4.22;1.50;;;;;;;35.08;24.41;99167.23;1689202;82;22102;-59
2022/06/09 12:18:07;;;;;;;4.15;1.72;;;;;;;34.91;24.28;99158.91;1692687;82;21543;-63
2022/06/09 12:20:40;;;;;;;2.15;1.55;;;;;;;34.93;24.47;99163.59;1718985;81;21535;-63
2022/06/09 12:23:34;;;;;;;1.62;1.30;;;;;;;35.10;24.12;99164.55;1724483;81;21719;-63